Time;durP1;ratioP1;P1;durP2;ratioP2;P2;SDS_P1;SDS_P2;PMS_P1;PMS_P2;Temp;Humidity;BMP_temperature;BMP_pressure;BME280_temperature;BME280_humidity;BME280_pressure;Samples;Min_cycle;Max_cycle;Signal;HPM_P1;HPM_P2
2022/08/13 00:01:37;;;;;;;5.72;0.80;;;19.70;69.40;;;;;;5067912;28;20065;-92
2022/08/13 00:04:04;;;;;;;3.20;1.08;;;19.70;69.60;;;;;;5079232;28;20025;-92
2022/08/13 00:09:06;;;;;;;2.97;0.95;;;19.60;69.90;;;;;;5082489;28;20647;-92
2022/08/13 00:14:22;;;;;;;3.40;0.90;;;19.50;70.40;;;;;;5081903;28;20039;-91
2022/08/13 00:16:48;;;;;;;1.52;0.70;;;19.40;70.40;;;;;;5066722;28;20115;-92
2022/08/13 00:19:14;;;;;;;1.88;0.77;;;19.40;70.90;;;;;;5064630;28;20048;-92
2022/08/13 00:21:39;;;;;;;1.98;0.80;;;19.40;70.80;;;;;;5067572;28;20035;-93
2022/08/13 00:24:05;;;;;;;2.95;0.80;;;19.30;71.00;;;;;;5064891;28;20031;-92
2022/08/13 00:26:33;;;;;;;5.85;0.77;;;19.30;71.10;;;;;;5064226;28;20063;-92
2022/08/13 00:29:00;;;;;;;2.30;0.90;;;19.20;71.50;;;;;;5068641;28;20051;-91
2022/08/13 00:31:26;;;;;;;3.35;0.80;;;19.20;71.80;;;;;;5063763;28;20032;-92
2022/08/13 00:33:53;;;;;;;3.15;1.15;;;19.20;72.00;;;;;;5062177;28;20024;-91
2022/08/13 00:36:21;;;;;;;3.05;0.93;;;19.10;72.30;;;;;;5063231;28;20031;-92
2022/08/13 00:38:47;;;;;;;1.65;0.80;;;19.10;72.50;;;;;;5064343;28;21345;-92
2022/08/13 00:41:37;;;;;;;2.58;1.00;;;19.00;72.60;;;;;;5065046;28;20019;-92
2022/08/13 00:44:00;;;;;;;5.13;1.00;;;18.90;72.60;;;;;;5077903;28;20159;-91
2022/08/13 00:46:26;;;;;;;3.13;1.10;;;18.90;72.60;;;;;;5064057;28;20491;-93
2022/08/13 00:48:53;;;;;;;2.97;0.70;;;18.90;72.50;;;;;;5062934;28;20144;-93
2022/08/13 00:51:21;;;;;;;2.20;1.13;;;18.90;72.70;;;;;;5064829;28;20036;-92
2022/08/13 00:53:48;;;;;;;5.20;0.90;;;18.90;73.10;;;;;;5060921;28;20021;-93
2022/08/13 00:56:14;;;;;;;3.53;0.88;;;18.80;73.30;;;;;;5065441;28;20027;-92
2022/08/13 00:58:41;;;;;;;5.40;1.40;;;18.80;73.50;;;;;;5066135;28;20494;-92
2022/08/13 01:01:07;;;;;;;2.55;0.90;;;18.70;73.40;;;;;;5082757;28;20114;-92
2022/08/13 01:03:36;;;;;;;3.58;1.00;;;18.70;73.60;;;;;;5066693;28;20030;-91
2022/08/13 01:06:03;;;;;;;3.10;0.80;;;18.70;73.40;;;;;;5059007;28;20540;-91
2022/08/13 01:08:31;;;;;;;4.47;1.10;;;18.70;73.90;;;;;;5078685;28;20035;-91
2022/08/13 01:11:12;;;;;;;2.92;1.10;;;18.70;74.00;;;;;;5062209;28;20028;-92
2022/08/13 01:13:41;;;;;;;5.05;1.05;;;18.70;73.90;;;;;;5062473;28;20047;-91
2022/08/13 01:16:13;;;;;;;2.58;1.02;;;18.60;74.10;;;;;;5078298;28;20024;-89
2022/08/13 01:18:42;;;;;;;3.83;0.88;;;18.60;74.40;;;;;;5078574;28;20058;-92
2022/08/13 01:21:19;;;;;;;2.28;0.88;;;18.60;74.50;;;;;;5081034;28;20113;-91
2022/08/13 01:23:48;;;;;;;2.20;0.70;;;18.60;74.80;;;;;;5064552;28;20036;-92
2022/08/13 01:26:15;;;;;;;2.50;0.90;;;18.50;75.00;;;;;;5064865;28;20032;-91
2022/08/13 01:28:45;;;;;;;2.30;0.73;;;18.40;75.30;;;;;;5065782;28;20035;-91
2022/08/13 01:31:14;;;;;;;2.03;0.70;;;18.40;75.50;;;;;;5065378;28;20133;-91
2022/08/13 01:33:41;;;;;;;2.72;0.80;;;18.30;75.70;;;;;;5064140;28;20101;-92
2022/08/13 01:36:07;;;;;;;2.95;0.65;;;18.30;75.90;;;;;;5065444;28;20042;-91
2022/08/13 01:38:35;;;;;;;2.03;1.10;;;18.20;76.20;;;;;;5060329;28;20744;-91
2022/08/13 01:41:02;;;;;;;4.57;0.85;;;18.20;76.60;;;;;;5054150;28;20310;-92
2022/08/13 01:43:30;;;;;;;1.88;0.90;;;18.10;76.60;;;;;;5058269;28;20086;-91
2022/08/13 01:46:00;;;;;;;2.22;0.80;;;18.10;77.00;;;;;;5058048;28;20776;-91
2022/08/13 01:51:26;;;;;;;6.32;0.95;;;18.00;77.40;;;;;;5055126;28;20052;-91
2022/08/13 01:53:58;;;;;;;2.53;0.77;;;17.90;77.70;;;;;;5053072;28;20028;-92
2022/08/13 01:56:24;;;;;;;3.27;1.03;;;17.90;78.10;;;;;;5071722;28;20024;-92
2022/08/13 01:58:56;;;;;;;4.35;1.23;;;17.90;78.40;;;;;;5060054;28;20306;-92
2022/08/13 02:01:25;;;;;;;4.72;0.80;;;17.80;78.50;;;;;;5058458;28;20021;-92
2022/08/13 02:03:56;;;;;;;2.88;1.05;;;17.80;78.70;;;;;;5061325;28;20380;-91
2022/08/13 02:06:27;;;;;;;2.47;1.08;;;17.80;78.90;;;;;;5059278;28;20021;-92
2022/08/13 02:08:59;;;;;;;2.17;1.00;;;17.70;78.90;;;;;;5058447;28;20036;-92
2022/08/13 02:11:29;;;;;;;3.03;1.65;;;17.70;79.10;;;;;;5058637;28;20392;-92
2022/08/13 02:13:55;;;;;;;2.22;1.17;;;17.70;79.30;;;;;;5059299;28;20130;-92
2022/08/13 02:16:22;;;;;;;2.58;0.90;;;17.70;79.40;;;;;;5062931;28;20025;-92
2022/08/13 02:18:52;;;;;;;3.17;0.98;;;17.70;79.80;;;;;;5057463;28;20024;-91
2022/08/13 02:21:21;;;;;;;3.53;1.27;;;17.70;79.90;;;;;;5073971;28;20028;-92
2022/08/13 02:23:53;;;;;;;3.05;1.02;;;17.70;80.00;;;;;;5058849;28;20039;-91
2022/08/13 02:26:23;;;;;;;10.00;1.08;;;17.70;80.10;;;;;;5061310;28;20033;-91
2022/08/13 02:28:51;;;;;;;5.30;1.45;;;17.70;80.30;;;;;;5058692;28;20041;-92
2022/08/13 02:31:18;;;;;;;2.97;0.90;;;17.70;80.60;;;;;;5059949;28;20033;-92
2022/08/13 02:33:44;;;;;;;3.35;1.05;;;17.70;80.80;;;;;;5059919;28;20028;-92
2022/08/13 02:36:11;;;;;;;3.72;0.93;;;17.70;81.10;;;;;;5059666;28;20049;-92
2022/08/13 02:38:37;;;;;;;3.35;1.25;;;17.70;81.30;;;;;;5064408;28;20174;-91
2022/08/13 02:43:50;;;;;;;2.33;1.10;;;17.60;81.90;;;;;;5082054;28;20427;-91
2022/08/13 02:46:17;;;;;;;4.00;1.15;;;17.50;82.10;;;;;;5069146;28;20028;-91
2022/08/13 02:48:43;;;;;;;2.20;0.93;;;17.50;82.50;;;;;;5085226;28;20039;-91
2022/08/13 02:51:12;;;;;;;4.72;0.95;;;17.50;82.90;;;;;;5068205;28;20036;-92
2022/08/13 02:53:41;;;;;;;3.70;1.23;;;17.40;83.10;;;;;;5062443;28;20023;-91
2022/08/13 02:56:08;;;;;;;3.33;1.00;;;17.40;83.40;;;;;;5064155;28;20024;-91
2022/08/13 02:58:36;;;;;;;2.55;1.20;;;17.40;83.80;;;;;;5085610;28;20024;-91
2022/08/13 03:01:03;;;;;;;7.78;1.35;;;17.30;84.10;;;;;;5063560;28;20028;-92
2022/08/13 03:03:31;;;;;;;2.92;1.23;;;17.30;84.40;;;;;;5063101;28;20115;-92
2022/08/13 03:05:57;;;;;;;2.72;1.10;;;17.20;84.80;;;;;;5082901;28;20020;-92
2022/08/13 03:08:23;;;;;;;5.00;1.27;;;17.20;85.20;;;;;;5068322;28;20032;-92
2022/08/13 03:10:49;;;;;;;3.78;1.00;;;17.10;85.40;;;;;;5067764;28;20040;-92
2022/08/13 03:13:25;;;;;;;2.70;1.25;;;17.10;85.90;;;;;;5064433;28;20056;-91
2022/08/13 03:15:56;;;;;;;2.50;1.08;;;17.10;86.30;;;;;;5064196;28;20054;-92
2022/08/13 03:18:25;;;;;;;3.33;1.20;;;17.00;86.70;;;;;;5067703;28;20020;-92
2022/08/13 03:20:51;;;;;;;5.30;1.60;;;17.00;87.10;;;;;;5067462;28;20032;-92
2022/08/13 03:23:17;;;;;;;5.53;1.80;;;16.90;87.60;;;;;;5082707;28;20552;-91
2022/08/13 03:25:44;;;;;;;3.92;1.40;;;16.90;88.60;;;;;;5064480;28;20045;-91
2022/08/13 03:28:10;;;;;;;5.13;1.50;;;16.90;88.50;;;;;;5064432;28;20028;-91
2022/08/13 03:30:36;;;;;;;4.72;1.20;;;16.90;88.80;;;;;;5063160;28;20032;-91
2022/08/13 03:33:13;;;;;;;2.80;1.30;;;16.90;89.20;;;;;;5066578;28;20024;-92
2022/08/13 03:35:40;;;;;;;5.07;1.50;;;16.80;89.50;;;;;;5069183;28;20492;-91
2022/08/13 03:38:08;;;;;;;3.38;1.30;;;16.80;89.90;;;;;;5081577;28;20116;-90
2022/08/13 03:43:20;;;;;;;5.32;1.38;;;16.80;90.20;;;;;;5084788;28;20046;-92
2022/08/13 03:45:46;;;;;;;3.80;1.00;;;16.80;90.30;;;;;;5082073;28;20024;-93
2022/08/13 03:48:13;;;;;;;5.65;1.45;;;16.80;90.40;;;;;;5059630;28;20028;-93
2022/08/13 03:50:43;;;;;;;3.28;1.42;;;16.80;90.60;;;;;;5067420;28;20039;-93
2022/08/13 03:53:10;;;;;;;5.80;1.40;;;16.80;90.80;;;;;;5066141;28;20042;-93
2022/08/13 03:55:37;;;;;;;3.55;0.90;;;16.80;91.00;;;;;;5060238;28;20035;-94
2022/08/13 03:58:04;;;;;;;7.43;2.28;;;16.80;91.20;;;;;;5083830;28;20027;-92
2022/08/13 04:00:33;;;;;;;2.80;1.10;;;16.70;91.30;;;;;;5080994;28;20035;-92
2022/08/13 04:03:00;;;;;;;2.60;1.38;;;16.70;91.40;;;;;;5078531;28;20165;-93
2022/08/13 04:05:27;;;;;;;5.90;1.30;;;16.70;91.60;;;;;;5065885;28;20028;-92
2022/08/13 04:07:53;;;;;;;2.75;1.20;;;16.70;91.70;;;;;;5059659;28;20168;-92
2022/08/13 04:10:19;;;;;;;2.13;1.15;;;16.70;91.80;;;;;;5060666;28;20041;-92
2022/08/13 04:12:45;;;;;;;2.20;1.10;;;16.70;91.80;;;;;;5068425;28;20055;-93
2022/08/13 04:15:11;;;;;;;6.00;1.27;;;16.70;91.90;;;;;;5064081;28;20136;-93
2022/08/13 04:17:37;;;;;;;3.35;1.63;;;16.70;92.00;;;;;;5072137;28;20107;-92
2022/08/13 04:20:09;;;;;;;2.42;0.98;;;16.80;91.90;;;;;;5093059;28;20357;-92
2022/08/13 04:22:36;;;;;;;7.20;1.20;;;16.80;91.80;;;;;;5080817;28;20023;-92
2022/08/13 04:25:04;;;;;;;3.97;1.02;;;16.80;91.80;;;;;;5096386;28;20024;-92
2022/08/13 04:27:32;;;;;;;2.58;1.20;;;16.80;91.70;;;;;;5093328;28;20020;-92
2022/08/13 04:29:58;;;;;;;6.47;1.55;;;16.80;91.70;;;;;;5104680;28;20042;-93
2022/08/13 04:32:24;;;;;;;2.58;1.25;;;16.80;91.80;;;;;;5070608;28;20032;-92
2022/08/13 04:34:50;;;;;;;3.63;1.10;;;16.80;91.80;;;;;;5090853;28;20031;-93
2022/08/13 04:37:16;;;;;;;7.72;1.42;;;16.80;91.70;;;;;;5075885;28;20063;-92
2022/08/13 04:39:43;;;;;;;3.47;0.88;;;16.80;91.70;;;;;;5074198;28;20085;-91
2022/08/13 04:42:09;;;;;;;4.20;1.80;;;16.80;91.70;;;;;;5070780;28;20509;-93
2022/08/13 04:44:35;;;;;;;2.60;1.50;;;16.80;92.10;;;;;;5070247;28;20028;-92
2022/08/13 04:47:03;;;;;;;2.53;0.90;;;16.80;91.90;;;;;;5073718;28;20448;-93
2022/08/13 04:49:28;;;;;;;6.07;1.40;;;16.80;92.00;;;;;;5069907;28;20073;-93
2022/08/13 04:51:54;;;;;;;2.42;1.08;;;16.80;92.10;;;;;;5074047;28;20039;-93
2022/08/13 04:54:19;;;;;;;2.65;1.10;;;16.80;92.20;;;;;;5066184;28;20111;-93
2022/08/13 04:56:46;;;;;;;5.63;1.30;;;16.80;92.50;;;;;;5061840;28;20077;-93
2022/08/13 04:59:12;;;;;;;3.35;1.40;;;16.80;92.30;;;;;;5075163;28;20419;-92
2022/08/13 05:01:38;;;;;;;4.30;1.05;;;16.80;92.40;;;;;;5073164;28;20024;-92
2022/08/13 05:04:04;;;;;;;3.95;1.20;;;16.80;92.50;;;;;;5074118;28;20472;-92
2022/08/13 05:06:29;;;;;;;4.55;1.27;;;16.80;92.40;;;;;;5083333;28;20043;-92
2022/08/13 05:08:59;;;;;;;3.47;1.20;;;16.90;92.50;;;;;;5073119;28;20035;-92
2022/08/13 05:11:26;;;;;;;6.60;1.52;;;16.90;92.40;;;;;;5058288;28;20669;-93
2022/08/13 05:13:51;;;;;;;5.78;1.65;;;17.00;92.50;;;;;;5054250;28;20038;-90
2022/08/13 05:16:18;;;;;;;5.00;1.60;;;17.00;92.40;;;;;;5057019;28;20051;-91
2022/08/13 05:18:53;;;;;;;7.20;1.40;;;17.10;92.40;;;;;;5057664;28;20753;-90
2022/08/13 05:21:23;;;;;;;5.20;0.90;;;17.10;92.30;;;;;;5059384;28;20040;-91
2022/08/13 05:23:53;;;;;;;3.03;1.05;;;17.20;92.30;;;;;;5057702;28;20024;-90
2022/08/13 05:26:21;;;;;;;2.03;0.93;;;17.20;92.30;;;;;;5056281;28;20039;-91
2022/08/13 05:28:48;;;;;;;2.28;1.02;;;17.30;92.20;;;;;;5052957;28;20646;-91
2022/08/13 05:31:13;;;;;;;4.72;0.93;;;17.30;92.10;;;;;;5054271;28;20081;-91
2022/08/13 05:33:39;;;;;;;2.97;1.10;;;17.40;92.10;;;;;;5054119;28;20028;-92
2022/08/13 05:36:05;;;;;;;1.98;1.20;;;17.50;92.00;;;;;;5059511;28;20056;-92
2022/08/13 05:38:31;;;;;;;5.32;1.20;;;17.60;92.00;;;;;;5055874;28;20037;-92
2022/08/13 05:40:59;;;;;;;1.90;1.00;;;17.70;91.80;;;;;;5062891;28;20043;-92
2022/08/13 05:43:28;;;;;;;4.53;1.00;;;17.70;91.80;;;;;;5059378;28;20024;-91
2022/08/13 05:45:57;;;;;;;6.65;1.00;;;17.80;91.70;;;;;;5058208;28;20040;-91
2022/08/13 05:48:25;;;;;;;4.85;1.00;;;18.00;91.60;;;;;;5055457;28;21465;-91
2022/08/13 05:50:51;;;;;;;4.68;1.10;;;18.10;91.50;;;;;;5062661;28;20032;-91
2022/08/13 05:53:17;;;;;;;5.85;1.13;;;18.20;91.50;;;;;;5061040;28;20061;-91
2022/08/13 05:55:42;;;;;;;2.80;1.20;;;18.30;91.30;;;;;;5059957;28;20026;-91
2022/08/13 05:58:13;;;;;;;4.32;1.23;;;18.50;91.10;;;;;;5058376;28;20032;-91
2022/08/13 06:03:27;;;;;;;3.80;1.40;;;18.90;90.70;;;;;;5074930;28;20411;-91
2022/08/13 06:06:00;;;;;;;4.55;1.20;;;19.10;90.40;;;;;;5053045;28;20042;-90
2022/08/13 06:08:36;;;;;;;2.58;1.45;;;19.30;90.10;;;;;;5058472;28;20119;-91
2022/08/13 06:11:06;;;;;;;2.95;1.00;;;19.40;89.40;;;;;;5074715;28;20033;-91
2022/08/13 06:13:33;;;;;;;2.55;0.90;;;19.60;88.90;;;;;;5062906;28;20112;-90
2022/08/13 06:16:01;;;;;;;2.33;0.93;;;19.70;88.30;;;;;;5061866;28;20496;-90
2022/08/13 06:18:31;;;;;;;2.42;0.70;;;19.90;87.80;;;;;;5061997;28;20026;-91
2022/08/13 06:21:00;;;;;;;4.05;1.48;;;20.00;87.30;;;;;;5076200;28;20113;-91
2022/08/13 06:23:28;;;;;;;3.92;1.20;;;20.10;86.50;;;;;;5060295;28;21950;-91
2022/08/13 06:25:54;;;;;;;2.33;0.70;;;20.20;86.00;;;;;;5066741;28;20512;-91
2022/08/13 06:28:26;;;;;;;2.45;1.20;;;20.40;85.60;;;;;;5064487;28;20056;-90
2022/08/13 06:31:07;;;;;;;4.07;0.90;;;20.50;85.40;;;;;;5061352;28;20048;-91
2022/08/13 06:33:35;;;;;;;4.80;0.80;;;20.60;84.70;;;;;;5062194;28;20040;-90
2022/08/13 06:36:07;;;;;;;3.92;0.90;;;20.70;84.50;;;;;;5060513;28;20035;-91
2022/08/13 06:38:36;;;;;;;4.53;0.70;;;20.80;84.20;;;;;;5056554;28;20508;-91
2022/08/13 06:41:06;;;;;;;6.25;0.70;;;20.90;83.80;;;;;;5062394;28;20039;-91
2022/08/13 06:43:35;;;;;;;7.50;0.70;;;21.00;83.40;;;;;;5064878;28;20508;-90
2022/08/13 06:46:03;;;;;;;3.70;0.70;;;21.20;83.20;;;;;;5057847;28;20028;-90
2022/08/13 06:48:28;;;;;;;2.08;0.77;;;21.30;83.00;;;;;;5062964;28;20377;-90
2022/08/13 06:50:55;;;;;;;2.40;0.60;;;21.40;82.40;;;;;;5055823;28;20039;-90
2022/08/13 06:53:21;;;;;;;2.13;0.70;;;21.50;81.40;;;;;;5059720;28;20585;-91
2022/08/13 06:55:49;;;;;;;2.47;0.70;;;21.50;81.00;;;;;;5056757;28;20020;-90
2022/08/13 06:58:15;;;;;;;2.55;0.80;;;21.70;80.90;;;;;;5059632;28;20028;-91
2022/08/13 07:00:41;;;;;;;2.50;0.50;;;21.80;80.30;;;;;;5054824;28;20037;-90
2022/08/13 07:03:08;;;;;;;1.10;0.50;;;21.90;79.80;;;;;;5064220;28;20017;-91
2022/08/13 07:05:42;;;;;;;4.35;0.55;;;22.00;79.50;;;;;;5054835;28;20037;-91
2022/08/13 07:08:11;;;;;;;2.50;0.50;;;22.20;79.10;;;;;;5057416;28;20077;-91
2022/08/13 07:10:43;;;;;;;2.10;0.50;;;22.30;78.60;;;;;;5062633;28;20044;-90
2022/08/13 07:13:09;;;;;;;4.13;0.50;;;22.40;78.00;;;;;;5053171;28;20047;-91
2022/08/13 07:15:36;;;;;;;3.60;0.57;;;22.60;77.80;;;;;;5058855;28;20036;-90
2022/08/13 07:18:04;;;;;;;8.65;0.60;;;22.70;77.10;;;;;;5062210;28;20054;-90
2022/08/13 07:20:31;;;;;;;1.50;0.55;;;22.80;76.80;;;;;;5061979;28;20025;-90
2022/08/13 07:22:57;;;;;;;1.95;0.60;;;23.00;76.50;;;;;;5058961;28;20043;-90
2022/08/13 07:25:25;;;;;;;3.88;0.80;;;23.10;76.30;;;;;;5072275;28;20036;-90
2022/08/13 07:27:54;;;;;;;2.15;0.43;;;23.20;76.10;;;;;;5054595;28;20130;-89
2022/08/13 07:30:21;;;;;;;2.47;0.50;;;23.30;75.60;;;;;;5058382;28;20054;-89
2022/08/13 07:32:47;;;;;;;1.98;0.40;;;23.50;75.30;;;;;;5071329;28;20043;-89
2022/08/13 07:35:13;;;;;;;2.45;0.40;;;23.60;74.90;;;;;;5059488;28;21269;-90
2022/08/13 07:37:42;;;;;;;2.38;0.82;;;23.70;73.70;;;;;;5056156;28;20039;-89
2022/08/13 07:40:08;;;;;;;2.33;0.40;;;23.80;72.50;;;;;;5071652;28;20050;-89
2022/08/13 07:42:39;;;;;;;5.50;0.40;;;24.00;71.60;;;;;;5059948;28;20033;-88
2022/08/13 07:45:09;;;;;;;2.33;0.40;;;24.10;70.10;;;;;;5057470;28;20024;-91
2022/08/13 07:47:37;;;;;;;2.20;0.50;;;24.20;69.20;;;;;;5065528;28;20024;-89
2022/08/13 07:50:10;;;;;;;2.70;0.40;;;24.30;68.60;;;;;;5053977;28;20058;-90
2022/08/13 07:52:37;;;;;;;2.55;0.40;;;24.40;67.40;;;;;;5057460;28;20126;-90
2022/08/13 07:55:05;;;;;;;2.90;0.40;;;24.50;66.80;;;;;;5056731;28;20024;-89
2022/08/13 07:57:32;;;;;;;5.03;0.50;;;24.70;66.40;;;;;;5060951;28;20036;-90
2022/08/13 07:59:58;;;;;;;2.60;0.40;;;24.80;65.50;;;;;;5057332;28;20031;-90
2022/08/13 08:02:26;;;;;;;3.83;0.50;;;24.90;64.90;;;;;;5057124;28;20032;-89
2022/08/13 08:04:55;;;;;;;2.60;0.50;;;25.10;64.80;;;;;;5056721;28;21921;-89
2022/08/13 08:07:22;;;;;;;1.63;0.40;;;25.20;64.60;;;;;;5063726;28;20028;-89
2022/08/13 08:09:50;;;;;;;2.25;0.30;;;25.30;63.80;;;;;;5073487;28;20056;-90
2022/08/13 08:12:35;;;;;;;1.25;0.30;;;25.40;63.20;;;;;;5052343;28;20078;-90
2022/08/13 08:15:06;;;;;;;3.40;0.40;;;25.50;62.50;;;;;;5058875;28;20060;-90
2022/08/13 08:17:32;;;;;;;1.08;0.40;;;25.60;62.60;;;;;;5059717;28;20028;-90
2022/08/13 08:19:57;;;;;;;3.50;0.40;;;25.70;62.70;;;;;;5057683;28;20036;-90
2022/08/13 08:22:23;;;;;;;1.63;0.57;;;25.80;62.50;;;;;;5060018;28;20024;-90
2022/08/13 08:24:50;;;;;;;1.33;0.40;;;25.90;61.50;;;;;;5054078;28;20035;-90
2022/08/13 08:27:17;;;;;;;1.33;0.30;;;26.00;61.50;;;;;;5057359;28;20032;-91
2022/08/13 08:29:44;;;;;;;1.98;0.50;;;26.10;61.50;;;;;;5057422;28;20030;-91
2022/08/13 08:32:12;;;;;;;1.23;0.40;;;26.30;61.10;;;;;;5056926;28;20602;-91
2022/08/13 08:34:40;;;;;;;1.27;0.30;;;26.40;60.20;;;;;;5058628;28;20042;-91
2022/08/13 08:37:06;;;;;;;1.05;0.40;;;26.50;59.60;;;;;;5056311;28;20081;-91
2022/08/13 08:42:39;;;;;;;1.77;0.50;;;26.60;59.20;;;;;;5071563;28;20093;-91
2022/08/13 08:45:13;;;;;;;1.83;0.40;;;26.70;59.10;;;;;;5057282;28;20384;-91
2022/08/13 08:47:40;;;;;;;2.40;0.50;;;26.80;58.60;;;;;;5055950;28;20065;-91
2022/08/13 08:50:07;;;;;;;2.03;0.50;;;26.90;58.60;;;;;;5056930;28;20077;-90
2022/08/13 08:55:19;;;;;;;2.15;0.30;;;27.00;58.00;;;;;;5073473;28;20096;-91
2022/08/13 08:57:45;;;;;;;3.17;0.60;;;27.10;57.10;;;;;;5060380;28;20016;-91
2022/08/13 09:00:14;;;;;;;1.33;0.40;;;27.10;57.70;;;;;;5054048;28;20492;-90
2022/08/13 09:02:40;;;;;;;1.65;0.30;;;27.30;57.00;;;;;;5056553;28;20400;-92
2022/08/13 09:05:12;;;;;;;2.95;0.30;;;27.40;56.70;;;;;;5070035;28;20024;-92
2022/08/13 09:07:39;;;;;;;2.90;0.40;;;27.50;57.10;;;;;;5069326;28;20036;-91
2022/08/13 09:10:05;;;;;;;4.10;0.40;;;27.50;56.80;;;;;;5058064;28;20692;-91
2022/08/13 09:12:32;;;;;;;1.45;0.30;;;27.60;56.10;;;;;;5059762;28;20032;-92
2022/08/13 09:14:58;;;;;;;2.97;0.50;;;27.70;55.50;;;;;;5057622;28;20032;-92
2022/08/13 09:17:24;;;;;;;3.35;0.40;;;27.80;55.50;;;;;;5055473;28;20035;-91
2022/08/13 09:19:50;;;;;;;1.85;0.40;;;27.90;55.60;;;;;;5059047;28;20064;-92
2022/08/13 09:22:23;;;;;;;3.05;0.30;;;28.00;55.20;;;;;;5059022;28;20416;-91
2022/08/13 09:24:51;;;;;;;2.38;0.30;;;28.10;55.00;;;;;;5057261;28;20028;-92
2022/08/13 09:27:17;;;;;;;1.38;0.20;;;28.10;54.40;;;;;;5057586;28;20024;-91
2022/08/13 09:29:45;;;;;;;2.35;0.40;;;28.20;54.20;;;;;;5055755;28;20032;-91
2022/08/13 09:32:14;;;;;;;2.67;0.38;;;28.40;53.60;;;;;;5055922;28;20047;-91
2022/08/13 09:34:43;;;;;;;1.20;0.50;;;28.40;53.10;;;;;;5055292;28;20117;-90
2022/08/13 09:37:09;;;;;;;1.65;0.30;;;28.40;53.70;;;;;;5055622;28;20606;-89
2022/08/13 09:39:56;;;;;;;3.83;0.52;;;28.40;53.40;;;;;;5067018;28;20058;-88
2022/08/13 09:42:27;;;;;;;2.55;0.30;;;28.50;53.80;;;;;;5054406;28;20031;-90
2022/08/13 09:44:55;;;;;;;1.30;0.30;;;28.60;53.50;;;;;;5055582;28;20198;-90
2022/08/13 09:47:21;;;;;;;1.20;0.30;;;28.70;52.80;;;;;;5058849;28;20492;-90
2022/08/13 09:49:48;;;;;;;1.27;0.30;;;28.80;52.70;;;;;;5057891;28;20024;-90
2022/08/13 09:52:14;;;;;;;1.40;0.30;;;28.90;52.60;;;;;;5059014;28;20120;-90
2022/08/13 09:54:41;;;;;;;1.95;0.38;;;29.00;52.10;;;;;;5061248;28;20146;-91
2022/08/13 09:57:07;;;;;;;1.95;0.28;;;29.20;51.30;;;;;;5058989;28;20073;-90
2022/08/13 09:59:33;;;;;;;0.73;0.30;;;29.30;51.10;;;;;;5054428;28;20032;-89
2022/08/13 10:02:09;;;;;;;0.90;0.30;;;29.30;50.70;;;;;;5062650;28;20073;-89
2022/08/13 10:04:36;;;;;;;2.08;0.30;;;29.40;50.30;;;;;;5070867;28;20032;-89
2022/08/13 10:07:04;;;;;;;1.63;0.45;;;29.50;49.80;;;;;;5061127;28;20043;-90
2022/08/13 10:09:30;;;;;;;3.63;0.45;;;29.50;50.10;;;;;;5074675;28;20035;-91
2022/08/13 10:11:59;;;;;;;2.78;0.40;;;29.50;49.70;;;;;;5055547;28;20169;-90
2022/08/13 10:14:25;;;;;;;0.73;0.30;;;29.50;49.80;;;;;;5057609;28;20155;-90
2022/08/13 10:16:50;;;;;;;1.40;0.30;;;29.60;50.40;;;;;;5058572;28;20388;-90
2022/08/13 10:19:19;;;;;;;0.80;0.30;;;29.70;50.10;;;;;;5062820;28;20016;-91
2022/08/13 10:21:44;;;;;;;2.42;0.40;;;29.70;49.90;;;;;;5053916;28;20089;-91
2022/08/13 10:24:10;;;;;;;2.30;0.57;;;29.70;49.90;;;;;;5061970;28;20028;-93
2022/08/13 10:26:40;;;;;;;0.82;0.30;;;29.80;49.60;;;;;;5063869;28;20081;-90
2022/08/13 10:29:08;;;;;;;1.25;0.30;;;29.80;48.90;;;;;;5062072;28;20028;-90
2022/08/13 10:31:34;;;;;;;3.60;0.50;;;29.70;48.80;;;;;;5057912;28;20047;-89
2022/08/13 10:33:59;;;;;;;0.77;0.30;;;29.80;48.50;;;;;;5061497;28;20029;-89
2022/08/13 10:36:29;;;;;;;0.60;0.30;;;29.80;48.20;;;;;;5058770;28;20024;-90
2022/08/13 10:38:55;;;;;;;0.75;0.30;;;29.90;48.00;;;;;;5059205;28;20059;-90
2022/08/13 10:41:21;;;;;;;1.65;0.30;;;30.00;48.10;;;;;;5058105;28;20044;-90
2022/08/13 10:43:48;;;;;;;2.00;0.40;;;30.10;47.90;;;;;;5059528;28;20274;-90
2022/08/13 10:46:17;;;;;;;2.25;0.30;;;30.20;47.50;;;;;;5056724;28;20561;-91
2022/08/13 10:48:44;;;;;;;0.98;0.30;;;30.30;47.50;;;;;;5060640;28;20030;-91
2022/08/13 10:51:10;;;;;;;1.80;0.30;;;30.30;47.30;;;;;;5057304;28;20036;-90
2022/08/13 10:56:21;;;;;;;1.13;0.30;;;30.40;47.00;;;;;;5074706;28;20098;-91
2022/08/13 10:58:46;;;;;;;3.47;0.30;;;30.50;47.20;;;;;;5052931;28;20055;-91
2022/08/13 11:01:12;;;;;;;0.43;0.22;;;30.60;47.00;;;;;;5074030;28;20064;-89
2022/08/13 11:03:38;;;;;;;1.13;0.40;;;30.60;46.80;;;;;;5069806;28;20055;-92
2022/08/13 11:06:06;;;;;;;0.50;0.20;;;30.70;46.20;;;;;;5061506;28;21646;-91
2022/08/13 11:08:42;;;;;;;2.65;0.20;;;30.70;46.00;;;;;;5057469;28;20038;-90
2022/08/13 11:11:09;;;;;;;1.70;0.20;;;30.70;45.50;;;;;;5059648;28;20039;-90
2022/08/13 11:13:39;;;;;;;1.35;0.20;;;30.70;45.40;;;;;;5073547;28;20028;-92
2022/08/13 11:18:50;;;;;;;1.52;0.40;;;30.90;45.50;;;;;;5074697;28;20046;-91
2022/08/13 11:21:16;;;;;;;0.60;0.20;;;30.90;45.40;;;;;;5054344;28;20025;-90
2022/08/13 11:23:41;;;;;;;0.63;0.30;;;31.00;44.80;;;;;;5058248;28;20033;-91
2022/08/13 11:26:07;;;;;;;2.78;0.30;;;31.00;44.90;;;;;;5053317;28;20032;-91
2022/08/13 11:28:32;;;;;;;0.90;0.30;;;31.10;45.30;;;;;;5060633;28;20043;-92
2022/08/13 11:30:58;;;;;;;1.23;0.30;;;31.20;45.70;;;;;;5057279;28;20054;-90
2022/08/13 11:33:25;;;;;;;1.55;0.30;;;31.30;45.60;;;;;;5056437;28;20524;-91
2022/08/13 11:35:52;;;;;;;1.10;0.28;;;31.30;44.80;;;;;;5057405;28;20028;-91
2022/08/13 11:38:20;;;;;;;2.50;0.40;;;31.30;44.40;;;;;;5055970;28;20035;-90
2022/08/13 11:40:49;;;;;;;1.10;0.30;;;31.40;44.20;;;;;;5057833;28;20033;-90
2022/08/13 11:43:14;;;;;;;2.20;0.20;;;31.50;44.00;;;;;;5061021;28;20529;-91
2022/08/13 11:45:40;;;;;;;1.48;0.30;;;31.50;43.80;;;;;;5056751;28;20027;-90
2022/08/13 11:48:06;;;;;;;2.25;0.30;;;31.50;43.80;;;;;;5058124;28;20031;-89
2022/08/13 11:50:32;;;;;;;1.20;0.20;;;31.50;43.40;;;;;;5059558;28;20442;-90
2022/08/13 11:52:57;;;;;;;2.47;0.30;;;31.50;43.50;;;;;;5057649;28;20028;-90
2022/08/13 11:55:23;;;;;;;0.85;0.30;;;31.50;43.40;;;;;;5057847;28;20107;-90
2022/08/13 11:57:59;;;;;;;1.65;0.30;;;31.50;43.80;;;;;;5054271;28;20028;-90
2022/08/13 12:00:24;;;;;;;1.40;0.28;;;31.60;44.20;;;;;;5056910;28;20518;-89
2022/08/13 12:02:50;;;;;;;0.55;0.30;;;31.60;43.90;;;;;;5057976;28;20032;-88
2022/08/13 12:05:16;;;;;;;2.60;0.30;;;31.70;43.80;;;;;;5057833;28;20024;-90
2022/08/13 12:07:41;;;;;;;0.88;0.30;;;31.70;43.50;;;;;;5061354;28;20070;-90
2022/08/13 12:10:07;;;;;;;1.23;0.30;;;31.70;43.60;;;;;;5054511;28;20476;-89
2022/08/13 12:12:32;;;;;;;0.93;0.20;;;31.80;43.50;;;;;;5055965;28;20067;-90
2022/08/13 12:15:01;;;;;;;0.57;0.20;;;31.80;43.50;;;;;;5057049;28;20024;-90
2022/08/13 12:17:29;;;;;;;1.25;0.20;;;31.90;43.40;;;;;;5054231;28;20031;-90
2022/08/13 12:19:55;;;;;;;0.77;0.25;;;31.90;43.00;;;;;;5057735;28;20468;-90
2022/08/13 12:22:21;;;;;;;1.00;0.30;;;32.00;42.40;;;;;;5057320;28;20035;-91
2022/08/13 12:24:47;;;;;;;1.10;0.38;;;32.00;42.90;;;;;;5059428;28;20480;-91
2022/08/13 12:27:13;;;;;;;2.30;0.30;;;32.00;43.10;;;;;;5060289;28;20038;-91
2022/08/13 12:29:38;;;;;;;3.60;0.30;;;32.10;43.20;;;;;;5058236;28;20028;-91
2022/08/13 12:32:04;;;;;;;1.70;0.30;;;32.20;43.20;;;;;;5062567;28;20051;-91
2022/08/13 12:34:30;;;;;;;0.80;0.47;;;32.30;43.40;;;;;;5057228;28;20115;-92
2022/08/13 12:36:55;;;;;;;1.15;0.30;;;32.40;43.30;;;;;;5055486;28;20119;-91
2022/08/13 12:39:21;;;;;;;0.98;0.30;;;32.30;41.90;;;;;;5058559;28;20047;-92
2022/08/13 12:41:47;;;;;;;0.85;0.30;;;32.20;42.10;;;;;;5071409;28;20036;-90
2022/08/13 12:44:13;;;;;;;0.65;0.30;;;32.10;42.10;;;;;;5058736;28;20032;-91
2022/08/13 12:46:38;;;;;;;2.67;0.25;;;32.00;42.20;;;;;;5071171;28;20039;-91
2022/08/13 12:49:05;;;;;;;1.45;0.30;;;32.00;42.30;;;;;;5071348;28;20020;-91
2022/08/13 12:51:31;;;;;;;0.68;0.30;;;32.00;42.70;;;;;;5056994;28;20110;-91
2022/08/13 12:53:56;;;;;;;0.80;0.35;;;32.10;43.00;;;;;;5072282;28;20116;-91
2022/08/13 12:56:22;;;;;;;2.25;0.30;;;32.20;42.80;;;;;;5070481;28;20084;-92
2022/08/13 12:58:47;;;;;;;3.63;0.30;;;32.30;42.50;;;;;;5060106;28;20047;-90
2022/08/13 13:01:13;;;;;;;1.45;0.30;;;32.40;42.70;;;;;;5058405;28;20036;-90
2022/08/13 13:03:38;;;;;;;0.80;0.30;;;32.50;42.50;;;;;;5055911;28;20065;-91
2022/08/13 13:06:04;;;;;;;0.70;0.30;;;32.60;42.10;;;;;;5057901;28;20035;-90
2022/08/13 13:08:31;;;;;;;1.13;0.30;;;32.70;41.80;;;;;;5059939;28;20547;-90
2022/08/13 13:11:00;;;;;;;1.85;0.40;;;32.70;41.70;;;;;;5068192;28;20119;-90
2022/08/13 13:13:26;;;;;;;1.05;0.28;;;32.90;41.70;;;;;;5055767;28;20028;-91
2022/08/13 13:15:55;;;;;;;2.30;0.30;;;33.00;41.40;;;;;;5069428;28;20024;-90
2022/08/13 13:18:25;;;;;;;2.40;0.40;;;33.10;41.20;;;;;;5071959;28;21023;-91